createdAt,value
2022-08-01T00:00:10.063Z,5.32
2022-08-01T00:02:39.101Z,4.97
2022-08-01T00:05:07.502Z,4.85
2022-08-01T00:07:35.775Z,3.15
2022-08-01T00:10:07.917Z,6.50
2022-08-01T00:12:34.918Z,3.78
2022-08-01T00:15:01.822Z,3.65
2022-08-01T00:17:28.728Z,3.47
2022-08-01T00:19:55.644Z,4.93
2022-08-01T00:22:22.712Z,6.00
2022-08-01T00:24:49.873Z,3.10
2022-08-01T00:27:16.896Z,4.63
2022-08-01T00:30:12.381Z,5.07
2022-08-01T00:32:34.063Z,2.00
2022-08-01T00:35:01.125Z,3.30
2022-08-01T00:37:27.991Z,3.65
2022-08-01T00:39:55.325Z,1.60
2022-08-01T00:42:22.279Z,3.10
2022-08-01T00:44:50.536Z,4.85
2022-08-01T00:47:17.400Z,2.75
2022-08-01T00:49:44.509Z,4.07
2022-08-01T00:52:11.931Z,1.50
2022-08-01T00:54:39.812Z,2.70
2022-08-01T00:57:09.943Z,1.38
2022-08-01T00:59:37.935Z,3.00
2022-08-01T01:02:14.864Z,2.25
2022-08-01T01:04:43.852Z,3.53
2022-08-01T01:07:38.594Z,9.10
2022-08-01T01:10:23.516Z,5.73
2022-08-01T01:12:56.703Z,3.58
2022-08-01T01:15:41.214Z,2.17
2022-08-01T01:18:22.725Z,3.53
2022-08-01T01:21:09.349Z,4.95
2022-08-01T01:23:55.169Z,5.95
2022-08-01T01:26:50.303Z,3.25
2022-08-01T01:29:18.707Z,3.33
2022-08-01T01:32:12.024Z,3.50
2022-08-01T01:34:43.833Z,1.70
2022-08-01T01:37:16.822Z,3.65
2022-08-01T01:39:45.468Z,5.93
2022-08-01T01:42:23.660Z,1.92
2022-08-01T01:44:51.573Z,1.80
2022-08-01T01:47:19.170Z,2.67
2022-08-01T01:49:48.106Z,2.30
2022-08-01T01:52:18.328Z,2.80
2022-08-01T01:54:51.481Z,3.80
2022-08-01T01:57:21.043Z,4.03
2022-08-01T01:59:50.759Z,4.50
2022-08-01T02:02:19.555Z,3.03
2022-08-01T02:04:48.190Z,2.10
2022-08-01T02:07:20.246Z,3.20
2022-08-01T02:09:48.136Z,2.67
2022-08-01T02:12:17.685Z,2.88
2022-08-01T02:14:46.857Z,2.58
2022-08-01T02:17:18.436Z,1.90
2022-08-01T02:19:45.792Z,2.15
2022-08-01T02:22:21.138Z,3.80
2022-08-01T02:27:28.022Z,1.65
2022-08-01T02:30:00.007Z,2.58
2022-08-01T02:32:39.458Z,1.95
2022-08-01T02:35:10.993Z,1.63
2022-08-01T02:37:44.276Z,1.40
2022-08-01T02:40:15.898Z,1.60
2022-08-01T02:42:47.548Z,3.65
2022-08-01T02:45:15.954Z,2.65
2022-08-01T02:47:45.099Z,3.97
2022-08-01T02:50:14.114Z,3.00
2022-08-01T02:52:42.784Z,2.20
2022-08-01T02:55:11.320Z,3.22
2022-08-01T02:57:52.376Z,5.03
2022-08-01T03:00:25.877Z,6.20
2022-08-01T03:02:56.045Z,6.10
2022-08-01T03:05:24.929Z,5.07
2022-08-01T03:07:53.957Z,5.32
2022-08-01T03:10:22.259Z,2.85
2022-08-01T03:12:51.700Z,3.90
2022-08-01T03:15:20.291Z,3.90
2022-08-01T03:17:49.423Z,4.00
2022-08-01T03:20:19.153Z,4.70
2022-08-01T03:22:48.668Z,3.55
2022-08-01T03:25:17.517Z,4.18
2022-08-01T03:27:47.654Z,5.55
2022-08-01T03:30:16.471Z,4.28
2022-08-01T03:32:43.665Z,3.67
2022-08-01T03:35:11.082Z,3.88
2022-08-01T03:38:00.331Z,3.08
2022-08-01T03:40:37.494Z,2.03
2022-08-01T03:43:08.851Z,4.15
2022-08-01T03:45:42.299Z,3.88
2022-08-01T03:48:17.147Z,3.33
2022-08-01T03:50:48.683Z,4.75
2022-08-01T03:53:16.976Z,4.43
2022-08-01T03:55:45.220Z,4.60
2022-08-01T03:58:14.002Z,5.15
2022-08-01T04:00:41.854Z,3.53
2022-08-01T04:03:15.243Z,3.83
2022-08-01T04:05:43.721Z,4.03
2022-08-01T04:08:11.007Z,4.53
2022-08-01T04:10:38.573Z,6.82
2022-08-01T04:13:05.363Z,8.75
2022-08-01T04:15:32.387Z,4.13
2022-08-01T04:17:59.367Z,6.03
2022-08-01T04:20:26.292Z,8.70
2022-08-01T04:22:53.252Z,7.70
2022-08-01T04:25:36.350Z,5.30
2022-08-01T04:28:08.465Z,8.05
2022-08-01T04:30:39.045Z,7.03
2022-08-01T04:33:09.082Z,5.68
2022-08-01T04:36:02.936Z,7.07
2022-08-01T04:38:29.521Z,5.85
2022-08-01T04:40:58.677Z,3.95
2022-08-01T04:43:25.809Z,3.63
2022-08-01T04:45:53.190Z,5.85
2022-08-01T04:48:22.615Z,7.03
2022-08-01T04:50:50.628Z,3.28
2022-08-01T04:53:20.226Z,3.92
2022-08-01T04:55:47.461Z,4.75
2022-08-01T04:58:18.479Z,5.53
2022-08-01T05:00:46.797Z,5.97
2022-08-01T05:03:13.730Z,4.55
2022-08-01T05:05:40.771Z,4.32
2022-08-01T05:08:07.729Z,4.70
2022-08-01T05:10:35.056Z,4.63
2022-08-01T05:13:01.916Z,3.33
2022-08-01T05:15:28.855Z,2.72
2022-08-01T05:17:55.950Z,4.47
2022-08-01T05:20:22.835Z,4.60
2022-08-01T05:22:50.765Z,3.42
2022-08-01T05:25:20.174Z,6.20
2022-08-01T05:27:53.611Z,4.72
2022-08-01T05:30:20.901Z,2.25
2022-08-01T05:32:47.771Z,3.33
2022-08-01T05:35:14.787Z,2.53
2022-08-01T05:37:41.743Z,2.08
2022-08-01T05:40:09.239Z,4.55
2022-08-01T05:42:36.206Z,2.65
2022-08-01T05:45:03.145Z,4.30
2022-08-01T05:47:30.014Z,4.65
2022-08-01T05:49:56.942Z,3.63
2022-08-01T05:52:23.802Z,2.13
2022-08-01T05:54:50.671Z,3.85
2022-08-01T05:57:17.645Z,3.20
2022-08-01T05:59:44.455Z,3.42
2022-08-01T06:02:11.485Z,4.35
2022-08-01T06:04:38.508Z,3.88
2022-08-01T06:07:05.510Z,2.53
2022-08-01T06:09:32.381Z,2.88
2022-08-01T06:11:59.278Z,2.10
2022-08-01T06:14:26.129Z,2.40
2022-08-01T06:16:53.017Z,1.73
2022-08-01T06:19:19.888Z,1.52
2022-08-01T06:21:46.753Z,3.75
2022-08-01T06:24:13.691Z,2.63
2022-08-01T06:26:40.629Z,1.23
2022-08-01T06:29:07.590Z,3.72
2022-08-01T06:31:37.022Z,2.55
2022-08-01T06:34:04.022Z,1.52
2022-08-01T06:36:30.968Z,2.08
2022-08-01T06:38:57.837Z,1.73
2022-08-01T06:41:24.738Z,1.70
2022-08-01T06:43:51.579Z,2.80
2022-08-01T06:46:18.450Z,1.63
2022-08-01T06:48:45.318Z,2.88
2022-08-01T06:51:16.440Z,0.93
2022-08-01T06:53:43.965Z,1.35
2022-08-01T06:56:12.411Z,1.20
2022-08-01T06:58:39.397Z,2.10
2022-08-01T07:01:09.507Z,2.35
2022-08-01T07:03:52.962Z,2.72
2022-08-01T07:06:21.712Z,1.50
2022-08-01T07:08:48.588Z,1.30
2022-08-01T07:11:15.424Z,1.55
2022-08-01T07:13:44.384Z,2.33
2022-08-01T07:16:14.055Z,2.22
2022-08-01T07:18:41.237Z,1.63
2022-08-01T07:21:12.756Z,1.75
2022-08-01T07:23:55.986Z,2.40
2022-08-01T07:26:23.567Z,2.60
2022-08-01T07:28:50.581Z,2.58
2022-08-01T07:31:17.528Z,2.63
2022-08-01T07:33:48.036Z,1.67
2022-08-01T07:36:17.428Z,1.30
2022-08-01T07:38:45.041Z,3.40
2022-08-01T07:41:12.242Z,2.08
2022-08-01T07:43:39.123Z,1.40
2022-08-01T07:46:06.518Z,2.22
2022-08-01T07:48:33.705Z,3.05
2022-08-01T07:51:00.770Z,1.88
2022-08-01T07:53:27.700Z,3.03
2022-08-01T07:55:54.593Z,2.38
2022-08-01T07:58:21.562Z,1.40
2022-08-01T08:00:48.443Z,2.67
2022-08-01T08:03:15.256Z,3.75
2022-08-01T08:05:59.031Z,1.73
2022-08-01T08:08:28.408Z,2.13
2022-08-01T08:10:55.285Z,1.88
2022-08-01T08:13:22.295Z,2.60
2022-08-01T08:15:49.478Z,2.65
2022-08-01T08:18:17.185Z,2.47
2022-08-01T08:20:44.947Z,3.38
2022-08-01T08:23:42.545Z,3.03
2022-08-01T08:26:11.963Z,4.07
2022-08-01T08:28:40.396Z,3.05
2022-08-01T08:31:24.929Z,4.20
2022-08-01T08:33:53.011Z,3.00
2022-08-01T08:36:19.866Z,3.97
2022-08-01T08:38:46.749Z,3.92
2022-08-01T08:41:19.249Z,3.83
2022-08-01T08:43:48.465Z,4.57
2022-08-01T08:46:16.108Z,4.50
2022-08-01T08:48:43.352Z,4.43
2022-08-01T08:51:12.384Z,5.47
2022-08-01T08:53:44.918Z,5.03
2022-08-01T08:56:14.243Z,5.82
2022-08-01T08:58:46.183Z,4.03
2022-08-01T09:01:14.035Z,5.30
2022-08-01T09:03:41.818Z,4.25
2022-08-01T09:06:08.964Z,5.63
2022-08-01T09:08:36.171Z,3.03
2022-08-01T09:11:03.450Z,5.20
2022-08-01T09:13:30.867Z,2.78
2022-08-01T09:16:01.358Z,5.30
2022-08-01T09:18:45.273Z,5.20
2022-08-01T09:21:24.100Z,2.10
2022-08-01T09:23:53.621Z,3.17
2022-08-01T09:26:37.057Z,3.70
2022-08-01T09:29:10.315Z,4.63
2022-08-01T09:31:47.496Z,4.47
2022-08-01T09:34:16.083Z,5.38
2022-08-01T09:36:58.318Z,3.78
2022-08-01T09:39:29.663Z,4.88
2022-08-01T09:41:59.254Z,5.50
2022-08-01T09:44:44.725Z,5.30
2022-08-01T09:47:15.610Z,5.47
2022-08-01T09:49:50.402Z,4.85
2022-08-01T09:52:21.380Z,4.63
2022-08-01T09:54:59.194Z,4.60
2022-08-01T09:57:27.219Z,4.50
2022-08-01T09:59:58.778Z,5.13
2022-08-01T10:02:28.898Z,6.38
2022-08-01T10:04:59.996Z,7.10
2022-08-01T10:07:42.758Z,5.13
2022-08-01T10:10:13.120Z,5.55
2022-08-01T10:12:45.562Z,5.30
2022-08-01T10:15:16.653Z,5.55
2022-08-01T10:17:57.407Z,8.05
2022-08-01T10:20:33.491Z,3.38
2022-08-01T10:23:05.638Z,5.88
2022-08-01T10:25:43.792Z,4.40
2022-08-01T10:28:21.408Z,6.95
2022-08-01T10:30:53.113Z,5.10
2022-08-01T10:33:50.536Z,8.48
2022-08-01T10:36:11.349Z,5.28
2022-08-01T10:38:38.795Z,6.93
2022-08-01T10:41:09.043Z,5.20
2022-08-01T10:43:36.861Z,7.72
2022-08-01T10:46:05.803Z,3.28
2022-08-01T10:48:41.356Z,5.82
2022-08-01T10:51:18.300Z,5.45
2022-08-01T10:56:18.310Z,6.95
2022-08-01T10:58:48.681Z,4.28
2022-08-01T11:01:30.435Z,3.38
2022-08-01T11:04:01.916Z,3.42
2022-08-01T11:06:35.123Z,4.18
2022-08-01T11:09:05.881Z,4.72
2022-08-01T11:11:37.368Z,6.38
2022-08-01T11:14:12.720Z,3.90
2022-08-01T11:19:09.532Z,2.53
2022-08-01T11:22:01.330Z,3.90
2022-08-01T11:24:50.783Z,5.50
2022-08-01T11:27:27.054Z,4.22
2022-08-01T11:30:18.455Z,3.97
2022-08-01T11:33:10.393Z,4.80
2022-08-01T11:35:59.183Z,7.05
2022-08-01T11:38:31.587Z,3.47
2022-08-01T11:41:38.184Z,5.55
2022-08-01T11:44:14.808Z,2.80
2022-08-01T11:46:57.902Z,6.18
2022-08-01T11:49:38.973Z,4.05
2022-08-01T11:52:10.596Z,6.72
2022-08-01T11:54:51.991Z,5.95
2022-08-01T11:57:36.108Z,5.95
2022-08-01T12:00:08.495Z,5.25
2022-08-01T12:02:42.094Z,4.57
2022-08-01T12:05:14.155Z,5.43
2022-08-01T12:07:44.017Z,5.43
2022-08-01T12:10:16.729Z,5.90
2022-08-01T12:12:46.481Z,7.25
2022-08-01T12:15:14.195Z,5.22
2022-08-01T12:17:58.580Z,6.28
2022-08-01T12:20:32.361Z,7.40
2022-08-01T12:23:01.561Z,8.48
2022-08-01T12:25:28.930Z,5.32
2022-08-01T12:27:57.862Z,6.55
2022-08-01T12:30:25.417Z,4.47
2022-08-01T12:32:54.379Z,6.60
2022-08-01T12:35:24.247Z,5.28
2022-08-01T12:37:55.365Z,5.95
2022-08-01T12:40:33.462Z,3.70
2022-08-01T12:43:08.763Z,6.13
2022-08-01T12:48:15.519Z,4.93
2022-08-01T12:50:44.856Z,6.55
2022-08-01T12:53:16.726Z,5.68
2022-08-01T12:55:58.649Z,6.43
2022-08-01T12:58:36.436Z,5.40
2022-08-01T13:01:06.985Z,6.90
2022-08-01T13:03:34.138Z,8.27
2022-08-01T13:06:01.488Z,5.18
2022-08-01T13:08:34.213Z,5.68
2022-08-01T13:11:16.649Z,6.22
2022-08-01T13:13:49.720Z,6.53
2022-08-01T13:16:43.258Z,7.47
2022-08-01T13:19:14.442Z,5.97
2022-08-01T13:21:55.084Z,6.70
2022-08-01T13:24:27.635Z,6.15
2022-08-01T13:27:04.330Z,7.75
2022-08-01T13:29:39.409Z,6.30
2022-08-01T13:32:29.236Z,5.53
2022-08-01T13:35:09.544Z,7.03
2022-08-01T13:37:38.514Z,11.65
2022-08-01T13:40:07.097Z,8.10
2022-08-01T13:42:34.322Z,6.18
2022-08-01T13:45:01.492Z,10.40
2022-08-01T13:47:32.074Z,8.60
2022-08-01T13:50:03.491Z,8.20
2022-08-01T13:52:31.642Z,9.93
2022-08-01T13:54:59.192Z,9.77
2022-08-01T13:57:26.304Z,5.50
2022-08-01T14:00:09.505Z,7.13
2022-08-01T14:02:39.452Z,12.05
2022-08-01T14:05:06.779Z,6.80
2022-08-01T14:07:33.639Z,8.10
2022-08-01T14:10:18.275Z,10.52
2022-08-01T14:12:50.539Z,5.68
2022-08-01T14:15:26.330Z,7.90
2022-08-01T14:18:06.137Z,4.55
2022-08-01T14:20:34.046Z,8.98
2022-08-01T14:23:00.923Z,9.27
2022-08-01T14:26:01.428Z,11.10
2022-08-01T14:28:14.753Z,7.38
2022-08-01T14:30:44.861Z,8.68
2022-08-01T14:33:12.485Z,6.50
2022-08-01T14:36:01.759Z,8.68
2022-08-01T14:38:31.436Z,6.65
2022-08-01T14:41:00.645Z,8.27
2022-08-01T14:43:32.871Z,5.93
2022-08-01T14:46:04.679Z,11.95
2022-08-01T14:48:31.995Z,7.18
2022-08-01T14:51:01.425Z,10.40
2022-08-01T14:53:28.337Z,7.15
2022-08-01T14:55:55.188Z,11.65
2022-08-01T14:58:22.248Z,10.57
2022-08-01T15:00:49.220Z,9.95
2022-08-01T15:03:16.478Z,9.23
2022-08-01T15:05:43.385Z,12.15
2022-08-01T15:08:10.434Z,9.15
2022-08-01T15:10:37.250Z,6.57
2022-08-01T15:13:04.176Z,9.60
2022-08-01T15:15:31.191Z,9.93
2022-08-01T15:17:58.271Z,5.28
2022-08-01T15:20:26.267Z,11.27
2022-08-01T15:22:53.827Z,6.43
2022-08-01T15:25:21.097Z,5.28
2022-08-01T15:27:48.443Z,8.35
2022-08-01T15:30:15.493Z,8.75
2022-08-01T15:32:42.547Z,6.78
2022-08-01T15:35:11.198Z,8.55
2022-08-01T15:40:12.608Z,7.13
2022-08-01T15:42:39.999Z,10.50
2022-08-01T15:45:10.567Z,8.80
2022-08-01T15:47:40.352Z,6.72
2022-08-01T15:50:07.951Z,11.38
2022-08-01T15:52:35.173Z,6.82
2022-08-01T15:55:02.505Z,6.30
2022-08-01T15:57:29.662Z,5.43
2022-08-01T15:59:56.670Z,10.05
2022-08-01T16:02:23.843Z,7.75
2022-08-01T16:04:51.189Z,10.15
2022-08-01T16:07:18.085Z,10.52
2022-08-01T16:09:44.887Z,8.45
2022-08-01T16:12:11.785Z,7.45
2022-08-01T16:14:38.889Z,9.63
2022-08-01T16:17:05.827Z,11.20
2022-08-01T16:19:32.702Z,7.05
2022-08-01T16:21:59.678Z,12.23
2022-08-01T16:24:30.978Z,10.75
2022-08-01T16:26:58.551Z,9.43
2022-08-01T16:29:30.569Z,7.90
2022-08-01T16:32:02.836Z,7.90
2022-08-01T16:34:30.687Z,9.43
2022-08-01T16:36:57.644Z,7.63
2022-08-01T16:39:24.809Z,7.10
2022-08-01T16:41:55.225Z,9.07
2022-08-01T16:44:28.625Z,8.77
2022-08-01T16:47:02.338Z,9.77
2022-08-01T16:49:29.324Z,7.93
2022-08-01T16:51:56.432Z,10.02
2022-08-01T16:54:25.158Z,6.82
2022-08-01T16:56:54.341Z,6.55
2022-08-01T16:59:23.029Z,6.68
2022-08-01T17:01:58.479Z,5.20
2022-08-01T17:04:30.125Z,4.90
2022-08-01T17:06:58.209Z,4.53
2022-08-01T17:09:25.327Z,4.65
2022-08-01T17:11:52.299Z,6.35
2022-08-01T17:14:19.867Z,7.25
2022-08-01T17:16:47.126Z,8.23
2022-08-01T17:19:14.836Z,6.70
2022-08-01T17:21:43.016Z,9.05
2022-08-01T17:24:14.809Z,8.63
2022-08-01T17:26:44.056Z,5.18
2022-08-01T17:29:11.081Z,6.07
2022-08-01T17:31:38.100Z,8.70
2022-08-01T17:34:05.817Z,8.80
2022-08-01T17:36:33.049Z,6.00
2022-08-01T17:39:00.082Z,7.18
2022-08-01T17:41:27.192Z,10.27
2022-08-01T17:43:54.094Z,3.35
2022-08-01T17:46:20.999Z,5.47
2022-08-01T17:48:48.633Z,10.77
2022-08-01T17:51:20.731Z,7.03
2022-08-01T17:53:56.733Z,8.88
2022-08-01T17:56:25.805Z,6.38
2022-08-01T17:58:52.834Z,5.57
2022-08-01T18:01:20.666Z,6.07
2022-08-01T18:03:48.102Z,6.13
2022-08-01T18:06:23.159Z,11.93
2022-08-01T18:08:55.421Z,7.95
2022-08-01T18:11:24.633Z,8.32
2022-08-01T18:13:54.491Z,6.38
2022-08-01T18:16:22.049Z,8.32
2022-08-01T18:18:49.019Z,6.88
2022-08-01T18:21:15.903Z,8.90
2022-08-01T18:23:50.908Z,7.22
2022-08-01T18:26:22.431Z,5.85
2022-08-01T18:28:49.607Z,9.88
2022-08-01T18:31:17.623Z,7.25
2022-08-01T18:33:44.907Z,5.30
2022-08-01T18:36:23.169Z,4.43
2022-08-01T18:39:00.287Z,7.00
2022-08-01T18:41:28.609Z,6.18
2022-08-01T18:44:03.833Z,6.05
2022-08-01T18:46:35.108Z,8.10
2022-08-01T18:49:02.116Z,7.60
2022-08-01T18:51:29.344Z,6.07
2022-08-01T18:53:57.777Z,7.57
2022-08-01T18:56:24.981Z,5.32
2022-08-01T18:58:53.447Z,6.07
2022-08-01T19:01:21.174Z,11.15
2022-08-01T19:03:48.106Z,8.57
2022-08-01T19:06:15.233Z,7.88
2022-08-01T19:08:42.368Z,6.78
2022-08-01T19:11:09.350Z,9.05
2022-08-01T19:13:36.273Z,6.75
2022-08-01T19:16:03.306Z,8.50
2022-08-01T19:18:30.278Z,5.90
2022-08-01T19:20:57.178Z,4.70
2022-08-01T19:23:42.570Z,5.07
2022-08-01T19:26:12.778Z,4.43
2022-08-01T19:28:48.570Z,9.82
2022-08-01T19:31:15.722Z,6.65
2022-08-01T19:33:43.080Z,6.32
2022-08-01T19:36:16.256Z,4.32
2022-08-01T19:38:44.454Z,5.05
2022-08-01T19:41:13.806Z,6.93
2022-08-01T19:43:46.147Z,6.35
2022-08-01T19:46:17.643Z,4.30
2022-08-01T19:48:51.524Z,5.28
2022-08-01T19:51:22.689Z,7.93
2022-08-01T19:54:06.282Z,5.82
2022-08-01T19:56:41.225Z,8.20
2022-08-01T19:59:08.532Z,5.30
2022-08-01T20:01:36.949Z,7.57
2022-08-01T20:04:06.178Z,7.45
2022-08-01T20:06:35.320Z,7.05
2022-08-01T20:09:03.326Z,5.75
2022-08-01T20:11:30.234Z,9.20
2022-08-01T20:13:58.312Z,5.80
2022-08-01T20:16:25.601Z,4.68
2022-08-01T20:18:52.542Z,2.22
2022-08-01T20:21:20.059Z,3.30
2022-08-01T20:23:47.611Z,4.30
2022-08-01T20:26:16.644Z,6.32
2022-08-01T20:28:47.291Z,8.30
2022-08-01T20:31:19.430Z,4.93
2022-08-01T20:33:49.441Z,7.90
2022-08-01T20:36:25.989Z,8.02
2022-08-01T20:38:55.414Z,4.57
2022-08-01T20:41:25.749Z,7.90
2022-08-01T20:43:55.181Z,4.55
2022-08-01T20:46:27.621Z,8.25
2022-08-01T20:48:55.617Z,9.02
2022-08-01T20:51:26.790Z,4.95
2022-08-01T20:53:55.312Z,6.15
2022-08-01T20:56:25.112Z,5.38
2022-08-01T20:59:40.122Z,17.83
2022-08-01T21:02:24.576Z,7.30
2022-08-01T21:05:04.822Z,8.45
2022-08-01T21:07:38.570Z,4.53
2022-08-01T21:10:11.475Z,4.30
2022-08-01T21:12:58.598Z,5.97
2022-08-01T21:15:59.912Z,6.32
2022-08-01T21:21:10.138Z,5.07
2022-08-01T21:23:37.190Z,7.57
2022-08-01T21:26:04.347Z,8.27
2022-08-01T21:28:34.537Z,5.15
2022-08-01T21:31:03.914Z,5.88
2022-08-01T21:33:37.556Z,4.75
2022-08-01T21:36:26.681Z,5.80
2022-08-01T21:38:58.905Z,10.50
2022-08-01T21:42:01.443Z,7.43
2022-08-01T21:44:16.540Z,6.63
2022-08-01T21:46:44.671Z,7.20
2022-08-01T21:49:12.528Z,7.85
2022-08-01T21:51:57.647Z,10.45
2022-08-01T21:54:52.147Z,8.27
2022-08-01T21:57:28.793Z,8.13
2022-08-01T22:00:06.232Z,11.00
2022-08-01T22:02:43.705Z,7.25
2022-08-01T22:05:13.228Z,7.63
2022-08-01T22:07:58.199Z,9.98
2022-08-01T22:10:26.006Z,8.40
2022-08-01T22:12:53.487Z,5.50
2022-08-01T22:15:24.547Z,9.52
2022-08-01T22:17:52.682Z,6.15
2022-08-01T22:20:24.051Z,9.75
2022-08-01T22:22:52.842Z,5.75
2022-08-01T22:25:21.092Z,9.10
2022-08-01T22:28:08.384Z,9.98
2022-08-01T22:30:41.913Z,7.28
2022-08-01T22:33:17.164Z,7.80
2022-08-01T22:35:50.708Z,10.45
2022-08-01T22:38:19.868Z,9.55
2022-08-01T22:40:54.189Z,6.07
2022-08-01T22:43:40.684Z,8.95
2022-08-01T22:46:37.245Z,9.07
2022-08-01T22:49:23.340Z,7.50
2022-08-01T22:51:54.609Z,5.70
2022-08-01T22:54:32.892Z,10.35
2022-08-01T22:57:16.163Z,7.38
2022-08-01T23:00:01.455Z,9.27
2022-08-01T23:02:33.722Z,6.43
2022-08-01T23:05:06.801Z,7.70
2022-08-01T23:07:38.455Z,8.25
2022-08-01T23:10:07.256Z,11.02
2022-08-01T23:12:34.346Z,8.98
2022-08-01T23:15:01.817Z,11.38
2022-08-01T23:17:30.648Z,9.43
2022-08-01T23:20:04.072Z,7.88
2022-08-01T23:22:33.117Z,12.07
2022-08-01T23:25:04.617Z,8.48
2022-08-01T23:27:51.597Z,9.50
2022-08-01T23:30:34.131Z,8.27
2022-08-01T23:33:01.603Z,9.30
2022-08-01T23:35:30.459Z,6.80
2022-08-01T23:38:01.757Z,6.88
2022-08-01T23:40:33.554Z,6.65
2022-08-01T23:43:02.115Z,8.35
2022-08-01T23:46:00.763Z,12.25
2022-08-01T23:48:16.078Z,7.25
2022-08-01T23:50:43.126Z,12.45
2022-08-01T23:53:10.071Z,14.52
2022-08-01T23:55:38.089Z,11.93
2022-08-01T23:58:06.707Z,9.88
